createdAt,value
2018-03-29T00:01:08.349Z,68.20
2018-03-29T00:03:36.702Z,68.40
2018-03-29T00:06:05.338Z,68.50
2018-03-29T00:08:33.648Z,68.50
2018-03-29T00:11:01.938Z,68.10
2018-03-29T00:13:30.347Z,68.70
2018-03-29T00:16:00.106Z,69.30
2018-03-29T00:18:29.367Z,70.60
2018-03-29T00:20:57.749Z,70.50
2018-03-29T00:23:25.999Z,70.50
2018-03-29T00:25:55.115Z,71.50
2018-03-29T00:28:23.645Z,71.50
2018-03-29T00:30:52.023Z,71.80
2018-03-29T00:33:20.348Z,71.90
2018-03-29T00:35:48.661Z,71.50
2018-03-29T00:38:16.921Z,72.10
2018-03-29T00:40:45.535Z,72.10
2018-03-29T00:43:13.844Z,72.10
2018-03-29T00:45:43.077Z,72.30
2018-03-29T00:48:12.503Z,72.30
2018-03-29T00:50:40.747Z,71.90
2018-03-29T00:53:26.887Z,71.60
2018-03-29T00:55:55.566Z,71.50
2018-03-29T00:58:23.958Z,72.50
2018-03-29T01:00:52.226Z,72.60
2018-03-29T01:03:20.483Z,72.00
2018-03-29T01:05:49.888Z,71.00
2018-03-29T01:08:18.685Z,70.70
2018-03-29T01:10:47.179Z,70.60
2018-03-29T01:13:15.545Z,70.90
2018-03-29T01:15:43.838Z,71.50
2018-03-29T01:18:12.343Z,71.70
2018-03-29T01:20:41.374Z,71.50
2018-03-29T01:23:09.817Z,71.50
2018-03-29T01:25:38.426Z,71.50
2018-03-29T01:28:06.956Z,70.90
2018-03-29T01:30:35.249Z,71.00
2018-03-29T01:33:04.336Z,70.90
2018-03-29T01:35:32.653Z,70.80
2018-03-29T01:38:01.214Z,71.20
2018-03-29T01:40:29.743Z,70.20
2018-03-29T01:42:58.025Z,70.70
2018-03-29T01:45:26.378Z,71.10
2018-03-29T01:47:54.728Z,71.30
2018-03-29T01:50:23.023Z,70.10
2018-03-29T01:52:51.342Z,70.80
2018-03-29T01:55:19.618Z,70.90
2018-03-29T01:57:47.959Z,71.20
2018-03-29T02:00:16.304Z,70.30
2018-03-29T02:02:44.725Z,70.60
2018-03-29T02:05:13.504Z,70.00
2018-03-29T02:07:41.885Z,70.00
2018-03-29T02:10:10.932Z,69.60
2018-03-29T02:12:40.008Z,70.80
2018-03-29T02:15:09.075Z,71.30
2018-03-29T02:17:37.416Z,71.30
2018-03-29T02:20:05.874Z,70.50
2018-03-29T02:22:34.134Z,70.40
2018-03-29T02:25:02.469Z,69.80
2018-03-29T02:27:30.773Z,69.80
2018-03-29T02:29:59.205Z,69.80
2018-03-29T02:32:28.399Z,69.20
2018-03-29T02:34:57.656Z,69.90
2018-03-29T02:37:25.926Z,69.90
2018-03-29T02:39:54.283Z,69.50
2018-03-29T02:42:22.783Z,69.30
2018-03-29T02:44:51.163Z,69.70
2018-03-29T02:47:19.454Z,70.10
2018-03-29T02:49:47.710Z,69.60
2018-03-29T02:52:16.104Z,69.40
2018-03-29T02:54:44.372Z,68.80
2018-03-29T02:57:12.794Z,68.30
2018-03-29T02:59:41.455Z,69.20
2018-03-29T03:02:09.900Z,69.00
2018-03-29T03:04:39.974Z,67.30
2018-03-29T03:07:10.275Z,68.20
2018-03-29T03:09:38.572Z,68.00
2018-03-29T03:12:07.598Z,67.70
2018-03-29T03:14:35.955Z,67.70
2018-03-29T03:17:04.286Z,67.30
2018-03-29T03:19:32.918Z,67.50
2018-03-29T03:22:01.492Z,67.80
2018-03-29T03:24:30.659Z,67.70
2018-03-29T03:26:59.048Z,67.70
2018-03-29T03:29:27.404Z,67.40
2018-03-29T03:31:55.703Z,68.30
2018-03-29T03:34:23.983Z,67.70
2018-03-29T03:36:53.084Z,67.40
2018-03-29T03:39:22.124Z,66.10
2018-03-29T03:41:50.418Z,66.10
2018-03-29T03:44:18.897Z,65.80
2018-03-29T03:46:47.193Z,65.60
2018-03-29T03:49:15.554Z,65.70
2018-03-29T03:51:43.970Z,65.90
2018-03-29T03:54:13.114Z,65.70
2018-03-29T03:56:41.479Z,65.60
2018-03-29T03:59:09.959Z,65.80
2018-03-29T04:01:38.407Z,65.50
2018-03-29T04:04:07.460Z,65.30
2018-03-29T04:06:35.982Z,65.30
2018-03-29T04:09:05.268Z,65.40
2018-03-29T04:11:33.595Z,65.40
2018-03-29T04:14:02.340Z,65.20
2018-03-29T04:16:30.627Z,65.30
2018-03-29T04:18:58.922Z,65.60
2018-03-29T04:21:27.252Z,65.70
2018-03-29T04:23:55.635Z,65.90
2018-03-29T04:26:23.925Z,66.10
2018-03-29T04:28:52.993Z,65.60
2018-03-29T04:31:21.245Z,65.60
2018-03-29T04:33:49.513Z,65.20
2018-03-29T04:36:17.822Z,65.20
2018-03-29T04:38:46.097Z,65.10
2018-03-29T04:41:14.418Z,64.90
2018-03-29T04:43:42.738Z,64.80
2018-03-29T04:46:11.160Z,65.00
2018-03-29T04:48:40.245Z,64.70
2018-03-29T04:51:09.339Z,65.00
2018-03-29T04:53:37.637Z,64.90
2018-03-29T04:56:05.952Z,64.50
2018-03-29T04:58:34.250Z,64.30
2018-03-29T05:01:03.282Z,63.80
2018-03-29T05:03:32.353Z,63.70
2018-03-29T05:06:01.358Z,63.70
2018-03-29T05:08:29.804Z,63.80
2018-03-29T05:10:58.088Z,62.70
2018-03-29T05:13:26.368Z,63.10
2018-03-29T05:15:54.647Z,63.20
2018-03-29T05:18:22.978Z,63.10
2018-03-29T05:20:51.239Z,63.60
2018-03-29T05:23:19.619Z,63.30
2018-03-29T05:25:47.988Z,63.40
2018-03-29T05:28:17.032Z,63.30
2018-03-29T05:30:45.531Z,63.90
2018-03-29T05:33:14.002Z,63.10
2018-03-29T05:35:42.308Z,64.00
2018-03-29T05:38:12.628Z,63.20
2018-03-29T05:40:41.850Z,63.20
2018-03-29T05:43:10.130Z,63.20
2018-03-29T05:45:38.448Z,63.20
2018-03-29T05:48:06.776Z,63.60
2018-03-29T05:50:35.050Z,99.90
2018-03-29T05:53:03.374Z,78.00
2018-03-29T05:55:31.794Z,63.10
2018-03-29T05:58:01.088Z,51.50
2018-03-29T06:00:30.294Z,41.60
2018-03-29T06:02:59.407Z,44.50
2018-03-29T06:05:29.074Z,44.60
2018-03-29T06:07:58.500Z,48.60
2018-03-29T06:10:28.719Z,53.00
2018-03-29T06:12:58.898Z,55.10
2018-03-29T06:15:33.469Z,55.00
2018-03-29T06:18:02.698Z,57.20
2018-03-29T06:20:31.203Z,57.10
2018-03-29T06:23:00.349Z,60.00
2018-03-29T06:25:28.743Z,60.10
2018-03-29T06:27:57.254Z,60.10
2018-03-29T06:30:25.639Z,60.30
2018-03-29T06:32:53.899Z,60.70
2018-03-29T06:35:22.280Z,61.10
2018-03-29T06:37:50.889Z,61.60
2018-03-29T06:40:19.303Z,61.10
2018-03-29T06:42:47.699Z,61.20
2018-03-29T06:45:16.424Z,61.40
2018-03-29T06:47:45.539Z,62.10
2018-03-29T06:50:13.991Z,62.10
2018-03-29T06:52:42.450Z,61.50
2018-03-29T06:55:10.790Z,61.40
2018-03-29T06:57:40.004Z,62.10
2018-03-29T07:00:08.521Z,62.10
2018-03-29T07:02:37.371Z,61.60
2018-03-29T07:05:06.674Z,61.90
2018-03-29T07:07:35.001Z,62.40
2018-03-29T07:10:03.531Z,62.40
2018-03-29T07:12:32.038Z,62.00
2018-03-29T07:15:00.510Z,63.20
2018-03-29T07:17:28.847Z,63.50
2018-03-29T07:19:57.944Z,64.30
2018-03-29T07:22:26.324Z,64.00
2018-03-29T07:24:54.619Z,63.70
2018-03-29T07:27:23.818Z,63.40
2018-03-29T07:29:53.576Z,62.70
2018-03-29T07:32:22.345Z,62.70
2018-03-29T07:34:50.915Z,62.90
2018-03-29T07:37:19.534Z,62.90
2018-03-29T07:39:47.851Z,63.30
2018-03-29T07:42:17.040Z,63.10
2018-03-29T07:44:46.270Z,62.90
2018-03-29T07:47:14.531Z,62.90
2018-03-29T07:49:43.775Z,62.20
2018-03-29T07:52:12.141Z,62.20
2018-03-29T07:54:40.492Z,62.30
2018-03-29T07:57:08.888Z,62.40
2018-03-29T07:59:37.200Z,63.10
2018-03-29T08:02:06.402Z,63.30
2018-03-29T08:04:37.312Z,62.70
2018-03-29T08:07:05.738Z,62.70
2018-03-29T08:09:34.806Z,62.80
2018-03-29T08:12:03.122Z,62.80
2018-03-29T08:14:32.155Z,63.00
2018-03-29T08:17:00.504Z,62.90
2018-03-29T08:19:28.810Z,62.90
2018-03-29T08:21:57.257Z,63.10
2018-03-29T08:24:25.571Z,63.10
2018-03-29T08:26:54.076Z,63.70
2018-03-29T08:29:22.486Z,63.40
2018-03-29T08:31:51.585Z,63.60
2018-03-29T08:34:19.901Z,63.60
2018-03-29T08:36:48.297Z,62.90
2018-03-29T08:39:16.756Z,62.60
2018-03-29T08:41:45.195Z,62.70
2018-03-29T08:44:13.714Z,62.20
2018-03-29T08:46:42.055Z,62.30
2018-03-29T08:49:11.275Z,61.80
2018-03-29T08:51:39.612Z,61.70
2018-03-29T08:54:08.009Z,62.20
2018-03-29T08:56:36.420Z,63.80
2018-03-29T08:59:04.895Z,63.40
2018-03-29T09:01:33.605Z,63.70
2018-03-29T09:04:01.890Z,64.20
2018-03-29T09:06:30.194Z,64.80
2018-03-29T09:08:59.275Z,65.40
2018-03-29T09:11:27.559Z,65.40
2018-03-29T09:13:56.727Z,65.40
2018-03-29T09:16:25.160Z,65.30
2018-03-29T09:18:53.466Z,65.60
2018-03-29T09:21:21.803Z,65.50
2018-03-29T09:23:50.986Z,65.70
2018-03-29T09:26:19.366Z,65.70
2018-03-29T09:28:47.708Z,66.20
2018-03-29T09:31:16.057Z,65.90
2018-03-29T09:33:44.417Z,66.40
2018-03-29T09:36:12.852Z,66.30
2018-03-29T09:38:41.131Z,66.10
2018-03-29T09:41:09.491Z,66.30
2018-03-29T09:43:37.820Z,67.30
2018-03-29T09:46:06.912Z,67.60
2018-03-29T09:48:36.100Z,67.40
2018-03-29T09:51:04.495Z,67.30
2018-03-29T09:53:33.687Z,67.90
2018-03-29T09:56:02.794Z,67.90
2018-03-29T09:58:32.014Z,67.50
2018-03-29T10:01:05.949Z,67.50
2018-03-29T10:03:45.045Z,67.70
2018-03-29T10:06:33.283Z,67.80
2018-03-29T10:09:01.653Z,67.60
2018-03-29T10:11:30.105Z,68.10
2018-03-29T10:14:00.390Z,67.80
2018-03-29T10:16:28.717Z,67.80
2018-03-29T10:18:57.878Z,67.60
2018-03-29T10:21:26.329Z,67.60
2018-03-29T10:23:54.647Z,68.40
2018-03-29T10:26:22.980Z,69.10
2018-03-29T10:28:51.330Z,69.30
2018-03-29T10:31:20.403Z,68.00
2018-03-29T10:33:49.530Z,67.30
2018-03-29T10:38:52.665Z,67.40
2018-03-29T10:41:20.981Z,67.60
2018-03-29T10:43:49.433Z,68.10
2018-03-29T10:46:17.801Z,66.60
2018-03-29T10:48:46.166Z,66.50
2018-03-29T10:51:16.078Z,66.50
2018-03-29T10:53:44.758Z,66.50
2018-03-29T10:56:14.079Z,64.60
2018-03-29T10:58:42.655Z,64.20
2018-03-29T11:01:11.316Z,64.90
2018-03-29T11:03:40.107Z,64.40
2018-03-29T11:06:08.504Z,64.20
2018-03-29T11:08:36.895Z,62.40
2018-03-29T11:11:05.231Z,62.20
2018-03-29T11:13:34.463Z,60.50
2018-03-29T11:16:02.835Z,60.50
2018-03-29T11:18:31.435Z,55.40
2018-03-29T11:20:59.761Z,57.80
2018-03-29T11:23:29.185Z,56.20
2018-03-29T11:25:57.770Z,56.20
2018-03-29T11:28:26.332Z,54.80
2018-03-29T11:30:55.661Z,51.90
2018-03-29T11:33:24.018Z,51.90
2018-03-29T11:35:52.625Z,53.40
2018-03-29T11:38:20.926Z,52.40
2018-03-29T11:40:49.390Z,50.80
2018-03-29T11:43:17.890Z,46.30
2018-03-29T11:45:46.248Z,48.10
2018-03-29T11:48:14.565Z,48.10
2018-03-29T11:50:42.980Z,47.20
2018-03-29T11:53:11.285Z,46.70
2018-03-29T11:55:39.591Z,48.60
2018-03-29T11:58:08.132Z,47.60
2018-03-29T12:00:36.478Z,49.10
2018-03-29T12:03:05.746Z,44.20
2018-03-29T12:05:34.048Z,44.20
2018-03-29T12:08:03.200Z,48.20
2018-03-29T12:10:31.552Z,48.20
2018-03-29T12:12:59.942Z,44.50
2018-03-29T12:15:28.327Z,45.00
2018-03-29T12:17:56.824Z,46.70
2018-03-29T12:20:25.192Z,46.30
2018-03-29T12:22:53.526Z,48.10
2018-03-29T12:25:23.765Z,47.70
2018-03-29T12:27:52.246Z,47.70
2018-03-29T12:30:20.645Z,47.60
2018-03-29T12:32:49.197Z,47.50
2018-03-29T12:35:17.545Z,48.00
2018-03-29T12:37:46.663Z,50.50
2018-03-29T12:40:15.786Z,50.00
2018-03-29T12:42:44.482Z,49.90
2018-03-29T12:45:12.935Z,50.00
2018-03-29T12:47:41.246Z,48.50
2018-03-29T12:50:09.595Z,46.10
2018-03-29T12:52:38.236Z,44.70
2018-03-29T12:55:24.066Z,43.10
2018-03-29T12:58:07.161Z,42.30
2018-03-29T13:00:35.472Z,42.60
2018-03-29T13:03:03.891Z,44.00
2018-03-29T13:05:32.419Z,43.90
2018-03-29T13:08:00.971Z,44.50
2018-03-29T13:10:30.073Z,40.20
2018-03-29T13:12:59.386Z,41.20
2018-03-29T13:15:28.636Z,41.90
2018-03-29T13:17:56.967Z,41.90
2018-03-29T13:20:26.074Z,50.50
2018-03-29T13:22:54.409Z,50.50
2018-03-29T13:25:23.578Z,57.10
2018-03-29T13:27:52.080Z,57.10
2018-03-29T13:30:20.515Z,59.30
2018-03-29T13:32:48.797Z,59.40
2018-03-29T13:35:17.150Z,60.40
2018-03-29T13:37:45.649Z,57.20
2018-03-29T13:40:13.979Z,57.40
2018-03-29T13:42:42.367Z,58.70
2018-03-29T13:45:10.750Z,60.00
2018-03-29T13:47:39.826Z,62.00
2018-03-29T13:50:08.150Z,62.00
2018-03-29T13:52:36.451Z,61.10
2018-03-29T13:55:04.745Z,60.60
2018-03-29T13:57:33.211Z,58.60
2018-03-29T14:00:02.002Z,56.10
2018-03-29T14:02:30.366Z,56.30
2018-03-29T14:04:58.739Z,53.10
2018-03-29T14:07:27.229Z,54.90
2018-03-29T14:09:55.544Z,53.50
2018-03-29T14:12:24.104Z,48.60
2018-03-29T14:14:52.493Z,45.10
2018-03-29T14:17:20.850Z,47.60
2018-03-29T14:19:49.192Z,45.60
2018-03-29T14:22:17.644Z,46.00
2018-03-29T14:24:45.977Z,44.60
2018-03-29T14:27:14.408Z,45.10
2018-03-29T14:29:44.661Z,45.40
2018-03-29T14:32:13.324Z,44.80
2018-03-29T14:34:41.836Z,43.70
2018-03-29T14:37:10.408Z,47.20
2018-03-29T14:39:38.724Z,48.40
2018-03-29T14:42:08.125Z,49.70
2018-03-29T14:44:36.757Z,49.70
2018-03-29T14:47:06.132Z,51.40
2018-03-29T14:49:35.663Z,52.40
2018-03-29T14:52:04.012Z,52.10
2018-03-29T14:54:32.353Z,56.20
2018-03-29T14:57:00.966Z,56.80
2018-03-29T14:59:29.308Z,58.30
2018-03-29T15:01:58.117Z,59.70
2018-03-29T15:04:26.413Z,57.20
2018-03-29T15:06:54.860Z,56.40
2018-03-29T15:09:23.605Z,57.90
2018-03-29T15:11:52.777Z,57.60
2018-03-29T15:14:21.233Z,57.60
2018-03-29T15:16:49.639Z,56.70
2018-03-29T15:19:18.049Z,56.00
2018-03-29T15:21:46.659Z,56.00
2018-03-29T15:24:14.943Z,55.30
2018-03-29T15:26:43.276Z,54.20
2018-03-29T15:29:12.473Z,51.00
2018-03-29T15:31:41.612Z,48.70
2018-03-29T15:34:11.846Z,47.00
2018-03-29T15:36:40.598Z,46.90
2018-03-29T15:39:09.065Z,47.00
2018-03-29T15:41:38.192Z,45.30
2018-03-29T15:44:06.708Z,45.30
2018-03-29T15:46:35.102Z,42.90
2018-03-29T15:49:03.431Z,41.60
2018-03-29T15:51:31.792Z,41.50
2018-03-29T15:54:00.211Z,42.00
2018-03-29T15:56:28.670Z,43.40
2018-03-29T15:58:57.276Z,45.30
2018-03-29T16:01:25.647Z,46.90
2018-03-29T16:03:53.990Z,49.30
2018-03-29T16:06:22.325Z,49.90
2018-03-29T16:08:50.759Z,50.40
2018-03-29T16:11:20.218Z,50.50
2018-03-29T16:13:49.442Z,50.60
2018-03-29T16:16:18.054Z,50.30
2018-03-29T16:18:46.449Z,48.40
2018-03-29T16:21:14.974Z,46.80
2018-03-29T16:23:44.575Z,43.70
2018-03-29T16:26:14.185Z,44.50
2018-03-29T16:28:43.291Z,43.80
2018-03-29T16:31:11.614Z,43.70
2018-03-29T16:33:40.142Z,44.30
2018-03-29T16:36:09.775Z,45.20
2018-03-29T16:38:38.151Z,45.20
2018-03-29T16:41:06.524Z,46.00
2018-03-29T16:43:34.945Z,47.00
2018-03-29T16:46:04.284Z,49.20
2018-03-29T16:48:33.491Z,49.00
2018-03-29T16:51:02.841Z,49.40
2018-03-29T16:53:31.285Z,49.40
2018-03-29T16:55:59.776Z,48.70
2018-03-29T16:58:28.433Z,49.10
2018-03-29T17:00:57.985Z,49.50
2018-03-29T17:03:27.488Z,49.40
2018-03-29T17:05:56.174Z,49.30
2018-03-29T17:08:26.328Z,50.00
2018-03-29T17:10:55.115Z,49.60
2018-03-29T17:13:24.274Z,50.00
2018-03-29T17:15:52.965Z,50.10
2018-03-29T17:18:21.461Z,49.80
2018-03-29T17:20:50.354Z,49.00
2018-03-29T17:23:18.917Z,49.40
2018-03-29T17:25:47.418Z,49.80
2018-03-29T17:28:16.571Z,50.00
2018-03-29T17:30:45.166Z,50.00
2018-03-29T17:33:13.478Z,50.00
2018-03-29T17:35:41.900Z,50.70
2018-03-29T17:38:10.240Z,50.90
2018-03-29T17:40:39.404Z,51.70
2018-03-29T17:43:07.802Z,51.70
2018-03-29T17:45:36.147Z,52.30
2018-03-29T17:48:04.589Z,52.60
2018-03-29T17:50:33.859Z,53.40
2018-03-29T17:53:02.304Z,53.30
2018-03-29T17:55:30.693Z,53.80
2018-03-29T17:57:59.113Z,54.60
2018-03-29T18:00:27.678Z,54.90
2018-03-29T18:02:57.785Z,80.30
2018-03-29T18:05:26.230Z,57.90
2018-03-29T18:07:54.707Z,44.10
2018-03-29T18:10:23.094Z,42.70
2018-03-29T18:12:51.679Z,44.20
2018-03-29T18:15:20.270Z,46.50
2018-03-29T18:17:48.717Z,47.30
2018-03-29T18:20:17.274Z,49.50
2018-03-29T18:22:46.519Z,51.60
2018-03-29T18:25:14.914Z,52.20
2018-03-29T18:27:43.286Z,52.70
2018-03-29T18:30:12.013Z,53.70
2018-03-29T18:32:41.242Z,54.70
2018-03-29T18:35:09.760Z,54.20
2018-03-29T18:37:38.163Z,54.30
2018-03-29T18:40:06.553Z,54.90
2018-03-29T18:42:35.754Z,55.60
2018-03-29T18:45:05.082Z,56.20
2018-03-29T18:47:33.584Z,55.50
2018-03-29T18:50:01.969Z,55.40
2018-03-29T18:52:30.477Z,54.70
2018-03-29T18:54:58.861Z,54.70
2018-03-29T18:57:28.206Z,55.00
2018-03-29T18:59:56.622Z,55.00
2018-03-29T19:02:26.296Z,54.70
2018-03-29T19:04:54.849Z,54.00
2018-03-29T19:07:23.217Z,54.90
2018-03-29T19:09:51.734Z,54.70
2018-03-29T19:12:20.296Z,55.00
2018-03-29T19:14:48.642Z,55.40
2018-03-29T19:17:17.902Z,55.40
2018-03-29T19:19:46.272Z,55.40
2018-03-29T19:22:14.721Z,55.30
2018-03-29T19:24:43.284Z,55.70
2018-03-29T19:27:12.948Z,55.90
2018-03-29T19:29:41.282Z,55.80
2018-03-29T19:32:09.758Z,55.80
2018-03-29T19:34:38.454Z,56.10
2018-03-29T19:37:06.823Z,56.00
2018-03-29T19:39:35.329Z,55.80
2018-03-29T19:42:03.698Z,55.90
2018-03-29T19:44:32.329Z,55.90
2018-03-29T19:47:00.677Z,55.80
2018-03-29T19:49:29.032Z,55.90
2018-03-29T19:51:57.409Z,56.00
2018-03-29T19:54:25.993Z,56.40
2018-03-29T19:56:54.386Z,56.30
2018-03-29T19:59:22.837Z,56.20
2018-03-29T20:01:51.220Z,55.90
2018-03-29T20:04:19.564Z,55.90
2018-03-29T20:06:48.117Z,56.00
2018-03-29T20:09:16.653Z,56.10
2018-03-29T20:11:45.201Z,55.90
2018-03-29T20:14:13.662Z,56.20
2018-03-29T20:16:42.071Z,56.50
2018-03-29T20:19:10.410Z,56.80
2018-03-29T20:21:38.910Z,56.70
2018-03-29T20:24:07.357Z,56.60
2018-03-29T20:26:37.146Z,56.60
2018-03-29T20:29:05.748Z,56.50
2018-03-29T20:31:34.122Z,55.80
2018-03-29T20:34:02.492Z,56.80
2018-03-29T20:36:31.044Z,57.10
2018-03-29T20:38:59.493Z,57.30
2018-03-29T20:41:27.957Z,57.90
2018-03-29T20:43:56.474Z,56.90
2018-03-29T20:46:24.958Z,57.30
2018-03-29T20:48:53.459Z,57.40
2018-03-29T20:51:22.840Z,57.30
2018-03-29T20:53:51.398Z,57.20
2018-03-29T20:56:19.912Z,57.40
2018-03-29T20:58:48.475Z,57.30
2018-03-29T21:01:18.471Z,56.90
2018-03-29T21:03:46.969Z,56.80
2018-03-29T21:06:15.541Z,56.70
2018-03-29T21:08:43.970Z,57.10
2018-03-29T21:11:13.154Z,57.30
2018-03-29T21:13:42.385Z,57.10
2018-03-29T21:16:10.954Z,57.10
2018-03-29T21:18:39.472Z,56.90
2018-03-29T21:21:07.952Z,57.30
2018-03-29T21:23:36.415Z,57.20
2018-03-29T21:26:04.788Z,57.50
2018-03-29T21:28:33.253Z,57.30
2018-03-29T21:31:02.682Z,57.10
2018-03-29T21:33:31.142Z,57.00
2018-03-29T21:35:59.642Z,57.00
2018-03-29T21:38:28.268Z,56.90
2018-03-29T21:40:56.628Z,57.40
2018-03-29T21:43:25.001Z,57.30
2018-03-29T21:45:53.474Z,57.60
2018-03-29T21:48:21.800Z,57.20
2018-03-29T21:50:51.029Z,56.80
2018-03-29T21:53:19.591Z,56.70
2018-03-29T21:55:48.766Z,57.00
2018-03-29T21:58:17.081Z,57.00
2018-03-29T22:00:46.280Z,57.10
2018-03-29T22:03:14.615Z,57.10
2018-03-29T22:05:43.064Z,57.30
2018-03-29T22:08:11.362Z,57.30
2018-03-29T22:10:40.000Z,57.20
2018-03-29T22:13:08.339Z,57.00
2018-03-29T22:15:36.818Z,57.20
2018-03-29T22:18:05.132Z,56.90
2018-03-29T22:20:33.471Z,57.10
2018-03-29T22:23:01.823Z,57.10
2018-03-29T22:25:30.255Z,56.70
2018-03-29T22:27:58.619Z,57.20
2018-03-29T22:30:27.236Z,57.20
2018-03-29T22:32:55.564Z,57.20
2018-03-29T22:35:23.921Z,57.50
2018-03-29T22:37:52.247Z,57.60
2018-03-29T22:40:21.363Z,57.90
2018-03-29T22:42:49.689Z,57.90
2018-03-29T22:45:18.042Z,58.00
2018-03-29T22:47:46.816Z,57.50
2018-03-29T22:50:15.202Z,57.50
2018-03-29T22:52:43.523Z,57.40
2018-03-29T22:55:11.960Z,57.60
2018-03-29T22:57:40.312Z,57.30
2018-03-29T23:00:09.848Z,58.30
2018-03-29T23:02:38.406Z,57.40
2018-03-29T23:05:06.719Z,57.60
2018-03-29T23:07:35.066Z,57.20
2018-03-29T23:10:03.599Z,57.50
2018-03-29T23:12:32.108Z,57.40
2018-03-29T23:15:01.461Z,57.20
2018-03-29T23:17:29.863Z,57.20
2018-03-29T23:19:58.228Z,56.80
2018-03-29T23:22:26.583Z,56.70
2018-03-29T23:24:54.947Z,56.90
2018-03-29T23:27:23.342Z,57.10
2018-03-29T23:29:51.697Z,57.10
2018-03-29T23:32:20.100Z,57.10
2018-03-29T23:34:48.547Z,57.30
2018-03-29T23:37:16.882Z,57.50
2018-03-29T23:39:45.164Z,57.40
2018-03-29T23:42:13.537Z,57.70
2018-03-29T23:44:41.990Z,57.60
2018-03-29T23:47:10.427Z,57.60
2018-03-29T23:49:39.704Z,57.50
2018-03-29T23:52:08.141Z,57.50
2018-03-29T23:54:36.426Z,57.70
2018-03-29T23:57:07.752Z,57.20
2018-03-29T23:59:36.049Z,56.90
